This is the latest recevied weather packets stored in our database for station/object 9M4RBN-3. If no packets are shown the sender has not sent any weather packets the latest 10 day(s).
| Time | Temp. | Humidity | Pressure | Rain* | Wind** | Luminosity | Snow |
|---|---|---|---|---|---|---|---|
| 1787854746 | 27.78° C | 72% | 1017.6 hPa | - | - | - | - |
| 1787853846 | 27.78° C | 71% | 1017.7 hPa | - | - | - | - |
| 1787852946 | 27.78° C | 71% | 1018 hPa | - | - | - | - |
| 1787852461 | 27.22° C | 71% | 1017.9 hPa | - | - | - | - |
| 1787852077 | 27.22° C | 71% | 1017.9 hPa | - | - | - | - |
| 1787852045 | 27.22° C | 71% | 1017.9 hPa | - | - | - | - |
| 1787851145 | 27.22° C | 70% | 1018 hPa | - | - | - | - |
| 1787850245 | 27.22° C | 67% | 1018 hPa | - | - | - | - |
| 1787849345 | 26.67° C | 65% | 1018.1 hPa | - | - | - | - |
| 1787848445 | 26.11° C | 60% | 1018.2 hPa | - | - | - | - |
| 1787847545 | 25.56° C | 53% | 1018.5 hPa | - | - | - | - |
| 1787846645 | 24.44° C | 44% | 1018.7 hPa | - | - | - | - |
| 1787845745 | 24.44° C | 44% | 1018.8 hPa | - | - | - | - |
| 1787844847 | 25° C | 44% | 1018.9 hPa | - | - | - | - |
| 1787843946 | 25° C | 43% | 1019 hPa | - | - | - | - |
| 1787843046 | 25° C | 44% | 1019 hPa | - | - | - | - |
| 1787842146 | 25° C | 43% | 1018.9 hPa | - | - | - | - |
| 1787841246 | 25° C | 45% | 1018.9 hPa | - | - | - | - |
| 1787840346 | 25.56° C | 45% | 1018.6 hPa | - | - | - | - |
| 1787839446 | 25.56° C | 45% | 1018.3 hPa | - | - | - | - |
| 1787838546 | 25.56° C | 45% | 1017.7 hPa | - | - | - | - |
| 1787837646 | 25.56° C | 44% | 1017.8 hPa | - | - | - | - |
| 1787836746 | 25.56° C | 46% | 1017.7 hPa | - | - | - | - |
| 1787835846 | 26.11° C | 48% | 1017.4 hPa | - | - | - | - |
| 1787834946 | 26.11° C | 53% | 1017.2 hPa | - | - | - | - |
* Rain since midnight (hover to see other rain measurements)
** Current wind speed in m/s (hover to see current wind gust speed)